createdAt,value
2019-05-17T00:01:21.223Z,9.36
2019-05-17T00:03:51.746Z,9.40
2019-05-17T00:06:22.317Z,9.40
2019-05-17T00:08:52.862Z,9.36
2019-05-17T00:11:23.501Z,9.30
2019-05-17T00:13:54.106Z,9.27
2019-05-17T00:16:26.692Z,9.32
2019-05-17T00:18:56.976Z,9.29
2019-05-17T00:21:27.846Z,9.21
2019-05-17T00:23:58.488Z,9.14
2019-05-17T00:26:29.053Z,9.12
2019-05-17T00:28:59.603Z,9.14
2019-05-17T00:31:30.482Z,9.10
2019-05-17T00:34:01.056Z,9.02
2019-05-17T00:36:31.547Z,8.99
2019-05-17T00:39:02.163Z,8.93
2019-05-17T00:41:32.797Z,8.94
2019-05-17T00:44:03.526Z,8.92
2019-05-17T00:46:34.058Z,8.93
2019-05-17T00:49:06.524Z,8.87
2019-05-17T00:51:37.506Z,8.89
2019-05-17T00:54:08.102Z,8.82
2019-05-17T00:56:38.667Z,8.72
2019-05-17T00:59:09.226Z,8.65
2019-05-17T01:01:39.876Z,8.66
2019-05-17T01:04:10.773Z,8.54
2019-05-17T01:06:41.347Z,8.44
2019-05-17T01:09:12.058Z,8.52
2019-05-17T01:11:42.790Z,8.40
2019-05-17T01:14:13.497Z,8.32
2019-05-17T01:16:44.166Z,8.41
2019-05-17T01:19:16.380Z,8.43
2019-05-17T01:21:47.570Z,8.46
2019-05-17T01:24:18.278Z,8.45
2019-05-17T01:26:48.803Z,8.46
2019-05-17T01:29:19.402Z,8.49
2019-05-17T01:31:50.008Z,8.54
2019-05-17T01:34:20.649Z,8.49
2019-05-17T01:36:51.057Z,8.36
2019-05-17T01:39:21.683Z,8.21
2019-05-17T01:41:52.257Z,8.16
2019-05-17T01:44:22.757Z,8.14
2019-05-17T01:46:53.364Z,7.99
2019-05-17T01:49:23.788Z,7.94
2019-05-17T01:51:56.669Z,8.00
2019-05-17T01:54:26.930Z,8.01
2019-05-17T01:56:57.676Z,7.99
2019-05-17T01:59:28.231Z,7.83
2019-05-17T02:02:03.098Z,7.76
2019-05-17T02:04:33.987Z,7.67
2019-05-17T02:07:06.789Z,7.60
2019-05-17T02:09:41.420Z,7.50
2019-05-17T02:12:09.402Z,7.43
2019-05-17T02:14:39.911Z,7.47
2019-05-17T02:17:10.621Z,7.61
2019-05-17T02:19:41.190Z,7.66
2019-05-17T02:22:11.857Z,7.60
2019-05-17T02:24:42.513Z,7.61
2019-05-17T02:27:13.112Z,7.69
2019-05-17T02:29:43.626Z,7.81
2019-05-17T02:32:14.553Z,7.90
2019-05-17T02:34:44.979Z,8.03
2019-05-17T02:37:15.638Z,8.09
2019-05-17T02:40:01.036Z,8.03
2019-05-17T02:42:18.529Z,7.95
2019-05-17T02:44:49.102Z,7.92
2019-05-17T02:47:22.934Z,7.96
2019-05-17T02:49:52.567Z,8.18
2019-05-17T02:52:23.314Z,8.45
2019-05-17T02:54:54.083Z,8.44
2019-05-17T02:57:24.740Z,8.35
2019-05-17T02:59:55.364Z,8.17
2019-05-17T03:02:27.981Z,8.20
2019-05-17T03:04:58.159Z,8.50
2019-05-17T03:07:28.817Z,8.58
2019-05-17T03:10:13.601Z,8.60
2019-05-17T03:12:32.879Z,8.65
2019-05-17T03:15:04.404Z,8.72
2019-05-17T03:17:35.154Z,8.81
2019-05-17T03:20:06.567Z,8.92
2019-05-17T03:22:37.143Z,8.96
2019-05-17T03:25:07.673Z,8.97
2019-05-17T03:27:38.259Z,9.03
2019-05-17T03:30:09.588Z,9.15
2019-05-17T03:32:47.706Z,9.33
2019-05-17T03:35:16.971Z,9.40
2019-05-17T03:37:46.422Z,9.48
2019-05-17T03:40:58.328Z,9.61
2019-05-17T03:42:53.564Z,9.67
2019-05-17T03:45:22.983Z,9.68
2019-05-17T03:47:53.666Z,9.76
2019-05-17T03:50:24.406Z,9.80
2019-05-17T03:52:54.980Z,9.88
2019-05-17T03:55:25.585Z,9.89
2019-05-17T03:57:56.148Z,9.94
2019-05-17T04:00:26.859Z,9.99
2019-05-17T04:02:57.485Z,10.03
2019-05-17T04:05:28.083Z,10.11
2019-05-17T04:07:58.469Z,10.14
2019-05-17T04:10:29.069Z,10.21
2019-05-17T04:12:59.723Z,10.26
2019-05-17T04:15:32.893Z,10.31
2019-05-17T04:18:04.330Z,10.35
2019-05-17T04:20:35.879Z,10.35
2019-05-17T04:23:06.552Z,10.37
2019-05-17T04:25:38.844Z,10.40
2019-05-17T04:28:13.373Z,10.46
2019-05-17T04:30:43.234Z,10.68
2019-05-17T04:33:14.273Z,11.21
2019-05-17T04:35:44.886Z,11.63
2019-05-17T04:38:15.567Z,11.90
2019-05-17T04:40:46.031Z,12.12
2019-05-17T04:43:16.648Z,12.14
2019-05-17T04:45:47.293Z,12.53
2019-05-17T04:48:17.828Z,12.91
2019-05-17T04:50:48.447Z,13.88
2019-05-17T04:53:19.072Z,14.94
2019-05-17T04:55:49.669Z,15.61
2019-05-17T04:58:23.000Z,16.37
2019-05-17T05:00:53.742Z,17.22
2019-05-17T05:03:24.965Z,17.40
2019-05-17T05:05:55.751Z,18.11
2019-05-17T05:08:26.334Z,18.56
2019-05-17T05:10:56.912Z,19.32
2019-05-17T05:13:27.813Z,19.54
2019-05-17T05:15:58.273Z,19.91
2019-05-17T05:18:28.923Z,20.17
2019-05-17T05:20:59.417Z,21.12
2019-05-17T05:23:31.814Z,20.28
2019-05-17T05:26:03.108Z,20.28
2019-05-17T05:28:34.007Z,21.56
2019-05-17T05:31:04.687Z,21.83
2019-05-17T05:33:35.257Z,21.42
2019-05-17T05:36:05.858Z,22.61
2019-05-17T05:38:36.552Z,22.47
2019-05-17T05:41:07.077Z,22.40
2019-05-17T05:43:37.671Z,23.18
2019-05-17T05:46:08.477Z,21.90
2019-05-17T05:48:38.944Z,22.65
2019-05-17T05:51:13.429Z,21.67
2019-05-17T05:53:42.102Z,19.83
2019-05-17T05:56:13.396Z,18.44
2019-05-17T05:58:44.237Z,17.22
2019-05-17T06:01:14.897Z,15.89
2019-05-17T06:03:45.518Z,15.67
2019-05-17T06:06:16.123Z,15.13
2019-05-17T06:08:46.758Z,15.31
2019-05-17T06:11:17.445Z,14.80
2019-05-17T06:13:47.976Z,14.99
2019-05-17T06:16:18.538Z,15.29
2019-05-17T06:18:51.566Z,15.47
2019-05-17T06:21:22.693Z,15.71
2019-05-17T06:23:53.281Z,15.49
2019-05-17T06:26:23.974Z,15.34
2019-05-17T06:28:54.582Z,15.50
2019-05-17T06:31:25.076Z,15.45
2019-05-17T06:33:55.686Z,15.44
2019-05-17T06:36:26.281Z,15.29
2019-05-17T06:38:56.736Z,15.54
2019-05-17T06:41:27.410Z,16.40
2019-05-17T06:43:58.078Z,17.01
2019-05-17T06:46:28.828Z,17.17
2019-05-17T06:48:59.550Z,17.31
2019-05-17T06:51:31.634Z,17.72
2019-05-17T06:54:02.321Z,18.02
2019-05-17T06:56:32.834Z,18.11
2019-05-17T06:59:03.625Z,17.97
2019-05-17T07:01:34.245Z,17.51
2019-05-17T07:04:04.906Z,17.24
2019-05-17T07:06:36.244Z,17.04
2019-05-17T07:09:09.890Z,17.13
2019-05-17T07:11:40.126Z,16.82
2019-05-17T07:14:10.736Z,16.48
2019-05-17T07:16:41.231Z,16.57
2019-05-17T07:19:11.817Z,16.61
2019-05-17T07:21:42.329Z,16.56
2019-05-17T07:24:12.947Z,16.58
2019-05-17T07:26:43.386Z,16.55
2019-05-17T07:29:13.803Z,16.58
2019-05-17T07:31:44.456Z,16.74
2019-05-17T07:34:14.936Z,17.02
2019-05-17T07:36:45.552Z,17.14
2019-05-17T07:39:16.039Z,17.61
2019-05-17T07:41:46.661Z,16.62
2019-05-17T07:44:17.217Z,16.80
2019-05-17T07:46:51.744Z,16.54
2019-05-17T07:49:20.114Z,16.55
2019-05-17T07:51:50.747Z,16.46
2019-05-17T07:54:21.361Z,15.56
2019-05-17T07:56:51.934Z,15.47
2019-05-17T07:59:22.856Z,15.65
2019-05-17T08:01:53.476Z,15.45
2019-05-17T08:04:24.011Z,15.77
2019-05-17T08:06:54.623Z,16.00
2019-05-17T08:09:25.078Z,15.57
2019-05-17T08:11:55.713Z,15.87
2019-05-17T08:14:30.264Z,16.16
2019-05-17T08:16:59.894Z,16.55
2019-05-17T08:19:30.567Z,16.14
2019-05-17T08:22:01.135Z,16.06
2019-05-17T08:24:31.848Z,16.15
2019-05-17T08:27:02.298Z,16.30
2019-05-17T08:29:32.881Z,16.28
2019-05-17T08:32:03.407Z,17.03
2019-05-17T08:34:33.969Z,17.88
2019-05-17T08:37:04.597Z,18.48
2019-05-17T08:39:35.275Z,18.51
2019-05-17T08:42:05.856Z,18.27
2019-05-17T08:44:36.504Z,18.22
2019-05-17T08:47:07.238Z,17.76
2019-05-17T08:49:40.177Z,18.17
2019-05-17T08:52:10.203Z,17.91
2019-05-17T08:54:42.879Z,18.18
2019-05-17T08:57:13.239Z,18.42
2019-05-17T08:59:43.702Z,18.30
2019-05-17T09:02:14.229Z,18.43
2019-05-17T09:04:44.767Z,17.91
2019-05-17T09:07:15.257Z,18.05
2019-05-17T09:09:45.697Z,17.61
2019-05-17T09:12:16.269Z,17.54
2019-05-17T09:14:46.805Z,17.60
2019-05-17T09:17:19.319Z,17.79
2019-05-17T09:19:50.930Z,17.84
2019-05-17T09:22:22.201Z,17.46
2019-05-17T09:24:52.777Z,17.37
2019-05-17T09:27:23.326Z,16.56
2019-05-17T09:29:53.916Z,16.45
2019-05-17T09:32:24.303Z,16.46
2019-05-17T09:34:54.889Z,16.17
2019-05-17T09:37:25.516Z,16.23
2019-05-17T09:39:55.929Z,15.78
2019-05-17T09:42:26.471Z,15.56
2019-05-17T09:44:57.022Z,15.65
2019-05-17T09:47:29.947Z,15.73
2019-05-17T09:50:00.645Z,15.42
2019-05-17T09:52:31.231Z,15.47
2019-05-17T09:55:01.699Z,15.49
2019-05-17T09:57:32.436Z,15.61
2019-05-17T10:00:03.025Z,15.77
2019-05-17T10:02:34.946Z,15.77
2019-05-17T10:05:10.327Z,16.15
2019-05-17T10:07:40.636Z,16.69
2019-05-17T10:10:11.597Z,16.70
2019-05-17T10:12:42.116Z,16.60
2019-05-17T10:15:12.939Z,16.92
2019-05-17T10:17:43.499Z,17.41
2019-05-17T10:20:14.273Z,17.07
2019-05-17T10:22:44.857Z,17.40
2019-05-17T10:25:15.657Z,17.83
2019-05-17T10:27:46.302Z,18.83
2019-05-17T10:30:16.945Z,19.37
2019-05-17T10:32:47.531Z,19.63
2019-05-17T10:35:19.830Z,20.12
2019-05-17T10:37:50.710Z,19.79
2019-05-17T10:40:22.211Z,20.53
2019-05-17T10:42:52.891Z,20.04
2019-05-17T10:45:23.691Z,20.80
2019-05-17T10:47:54.331Z,21.09
2019-05-17T10:50:25.056Z,21.41
2019-05-17T10:52:55.699Z,21.44
2019-05-17T10:55:26.236Z,21.76
2019-05-17T10:57:56.809Z,21.13
2019-05-17T11:00:30.134Z,21.23
2019-05-17T11:03:00.561Z,20.47
2019-05-17T11:05:31.336Z,21.00
2019-05-17T11:08:01.985Z,20.72
2019-05-17T11:10:32.570Z,20.21
2019-05-17T11:13:03.282Z,19.40
2019-05-17T11:15:33.936Z,19.56
2019-05-17T11:18:04.519Z,19.27
2019-05-17T11:20:35.250Z,19.80
2019-05-17T11:23:05.986Z,19.77
2019-05-17T11:25:36.583Z,20.08
2019-05-17T11:28:07.606Z,20.76
2019-05-17T11:30:38.207Z,21.05
2019-05-17T11:33:08.805Z,20.39
2019-05-17T11:35:39.439Z,19.82
2019-05-17T11:38:10.031Z,19.08
2019-05-17T11:40:40.567Z,18.60
2019-05-17T11:43:11.084Z,18.26
2019-05-17T11:45:41.607Z,18.77
2019-05-17T11:48:12.336Z,19.21
2019-05-17T11:50:43.009Z,19.05
2019-05-17T11:53:13.647Z,19.79
2019-05-17T11:55:44.262Z,18.38
2019-05-17T11:58:14.712Z,18.54
2019-05-17T12:00:45.452Z,18.97
2019-05-17T12:03:16.128Z,18.84
2019-05-17T12:05:46.786Z,18.31
2019-05-17T12:08:17.259Z,18.45
2019-05-17T12:10:48.003Z,18.44
2019-05-17T12:13:18.722Z,18.28
2019-05-17T12:15:49.462Z,18.41
2019-05-17T12:18:19.967Z,18.78
2019-05-17T12:20:50.726Z,18.88
2019-05-17T12:23:21.317Z,19.20
2019-05-17T12:25:51.942Z,19.00
2019-05-17T12:28:22.611Z,18.39
2019-05-17T12:30:53.195Z,18.58
2019-05-17T12:33:23.717Z,18.74
2019-05-17T12:35:54.344Z,18.74
2019-05-17T12:38:24.936Z,18.75
2019-05-17T12:40:55.515Z,19.26
2019-05-17T12:43:26.027Z,19.59
2019-05-17T12:46:00.823Z,19.78
2019-05-17T12:48:28.857Z,19.15
2019-05-17T12:50:59.514Z,18.76
2019-05-17T12:53:30.194Z,18.83
2019-05-17T12:56:00.856Z,18.58
2019-05-17T12:58:31.387Z,18.72
2019-05-17T13:01:01.992Z,18.93
2019-05-17T13:03:32.610Z,18.88
2019-05-17T13:06:03.137Z,19.38
2019-05-17T13:08:33.647Z,19.41
2019-05-17T13:11:04.392Z,19.18
2019-05-17T13:13:36.182Z,18.80
2019-05-17T13:16:17.437Z,18.58
2019-05-17T13:18:39.358Z,18.26
2019-05-17T13:21:09.995Z,18.41
2019-05-17T13:23:40.647Z,18.69
2019-05-17T13:26:11.385Z,19.06
2019-05-17T13:28:41.992Z,19.38
2019-05-17T13:31:12.936Z,19.27
2019-05-17T13:33:43.485Z,18.93
2019-05-17T13:36:14.221Z,18.67
2019-05-17T13:38:45.108Z,18.73
2019-05-17T13:41:15.951Z,18.79
2019-05-17T13:43:46.467Z,18.76
2019-05-17T13:46:30.784Z,18.83
2019-05-17T13:48:49.657Z,18.34
2019-05-17T13:51:21.974Z,18.56
2019-05-17T13:53:52.615Z,18.69
2019-05-17T13:56:23.178Z,18.54
2019-05-17T13:58:54.044Z,18.43
2019-05-17T14:01:24.763Z,19.06
2019-05-17T14:03:55.411Z,19.33
2019-05-17T14:06:26.078Z,19.31
2019-05-17T14:08:56.671Z,19.03
2019-05-17T14:11:27.412Z,19.06
2019-05-17T14:13:58.197Z,18.92
2019-05-17T14:16:28.762Z,18.72
2019-05-17T14:18:59.333Z,18.51
2019-05-17T14:21:29.896Z,18.56
2019-05-17T14:24:00.516Z,18.46
2019-05-17T14:26:31.268Z,18.32
2019-05-17T14:29:01.694Z,18.15
2019-05-17T14:31:32.299Z,17.90
2019-05-17T14:34:03.027Z,18.07
2019-05-17T14:36:33.722Z,18.27
2019-05-17T14:39:05.472Z,18.33
2019-05-17T14:41:36.116Z,18.31
2019-05-17T14:44:06.917Z,18.30
2019-05-17T14:46:37.587Z,18.47
2019-05-17T14:49:08.296Z,18.57
2019-05-17T14:51:38.976Z,18.63
2019-05-17T14:54:09.802Z,18.53
2019-05-17T14:56:40.369Z,18.70
2019-05-17T14:59:10.984Z,18.56
2019-05-17T15:01:41.638Z,18.47
2019-05-17T15:04:12.168Z,18.63
2019-05-17T15:06:44.799Z,18.81
2019-05-17T15:09:15.410Z,18.58
2019-05-17T15:11:50.582Z,18.33
2019-05-17T15:14:24.218Z,18.37
2019-05-17T15:16:54.997Z,18.21
2019-05-17T15:19:25.634Z,18.16
2019-05-17T15:21:56.265Z,18.26
2019-05-17T15:24:26.958Z,18.27
2019-05-17T15:27:05.623Z,18.28
2019-05-17T15:29:30.034Z,18.27
2019-05-17T15:32:00.633Z,18.33
2019-05-17T15:34:31.386Z,18.32
2019-05-17T15:37:02.128Z,18.30
2019-05-17T15:39:32.737Z,18.32
2019-05-17T15:42:03.327Z,18.31
2019-05-17T15:44:33.872Z,18.30
2019-05-17T15:47:04.586Z,18.28
2019-05-17T15:49:35.149Z,18.30
2019-05-17T15:52:06.181Z,18.23
2019-05-17T15:54:37.217Z,18.17
2019-05-17T15:57:07.911Z,18.15
2019-05-17T15:59:39.486Z,18.11
2019-05-17T16:02:10.018Z,18.18
2019-05-17T16:04:41.626Z,18.14
2019-05-17T16:07:12.159Z,18.13
2019-05-17T16:09:44.118Z,18.17
2019-05-17T16:12:14.886Z,18.16
2019-05-17T16:14:45.653Z,18.17
2019-05-17T16:17:16.293Z,18.06
2019-05-17T16:19:47.094Z,17.95
2019-05-17T16:22:17.616Z,17.91
2019-05-17T16:24:48.197Z,17.90
2019-05-17T16:27:18.844Z,17.91
2019-05-17T16:29:49.472Z,17.91
2019-05-17T16:32:19.996Z,17.94
2019-05-17T16:34:50.566Z,17.93
2019-05-17T16:37:21.282Z,17.93
2019-05-17T16:39:51.950Z,17.92
2019-05-17T16:42:22.677Z,17.93
2019-05-17T16:44:55.767Z,17.85
2019-05-17T16:47:26.354Z,17.84
2019-05-17T16:49:57.010Z,17.88
2019-05-17T16:52:27.578Z,17.90
2019-05-17T16:54:58.163Z,17.85
2019-05-17T16:57:28.897Z,17.81
2019-05-17T16:59:59.643Z,17.86
2019-05-17T17:02:30.594Z,17.81
2019-05-17T17:05:01.317Z,17.77
2019-05-17T17:07:31.903Z,17.79
2019-05-17T17:10:02.569Z,17.82
2019-05-17T17:12:33.254Z,17.76
2019-05-17T17:15:06.282Z,17.76
2019-05-17T17:17:37.958Z,17.84
2019-05-17T17:20:08.712Z,17.87
2019-05-17T17:22:39.223Z,17.85
2019-05-17T17:25:12.672Z,17.81
2019-05-17T17:27:43.378Z,17.75
2019-05-17T17:30:14.578Z,17.75
2019-05-17T17:32:45.287Z,17.70
2019-05-17T17:35:26.868Z,17.66
2019-05-17T17:37:57.687Z,17.59
2019-05-17T17:40:28.777Z,17.56
2019-05-17T17:42:59.662Z,17.48
2019-05-17T17:45:30.612Z,17.45
2019-05-17T17:48:02.973Z,17.40
2019-05-17T17:50:33.724Z,17.34
2019-05-17T17:53:08.964Z,17.29
2019-05-17T17:55:39.582Z,17.22
2019-05-17T17:58:10.223Z,17.21
2019-05-17T18:00:44.674Z,17.13
2019-05-17T18:03:16.303Z,17.08
2019-05-17T18:05:50.051Z,17.01
2019-05-17T18:08:24.568Z,16.97
2019-05-17T18:10:55.343Z,16.91
2019-05-17T18:13:27.303Z,16.79
2019-05-17T18:15:58.142Z,16.73
2019-05-17T18:18:29.117Z,16.65
2019-05-17T18:20:59.850Z,16.63
2019-05-17T18:23:36.963Z,16.58
2019-05-17T18:26:10.860Z,16.54
2019-05-17T18:28:47.087Z,16.50
2019-05-17T18:31:17.795Z,16.47
2019-05-17T18:33:50.609Z,16.42
2019-05-17T18:36:21.376Z,16.38
2019-05-17T18:38:55.164Z,16.40
2019-05-17T18:41:29.266Z,16.33
2019-05-17T18:44:03.014Z,16.27
2019-05-17T18:46:33.827Z,16.24
2019-05-17T18:49:07.149Z,16.20
2019-05-17T18:51:38.907Z,16.25
2019-05-17T18:54:12.020Z,16.19
2019-05-17T18:56:42.754Z,16.18
2019-05-17T18:59:16.986Z,16.15
2019-05-17T19:01:51.192Z,16.11
2019-05-17T19:04:23.038Z,16.08
2019-05-17T19:06:53.710Z,16.06
2019-05-17T19:09:24.766Z,15.99
2019-05-17T19:11:57.707Z,16.05
2019-05-17T19:14:42.370Z,16.05
2019-05-17T19:17:06.439Z,15.96
2019-05-17T19:19:39.566Z,16.02
2019-05-17T19:22:10.240Z,15.90
2019-05-17T19:24:46.651Z,15.81
2019-05-17T19:27:23.842Z,15.79
2019-05-17T19:29:58.028Z,15.66
2019-05-17T19:32:29.847Z,15.67
2019-05-17T19:35:01.538Z,15.70
2019-05-17T19:37:32.288Z,15.66
2019-05-17T19:40:03.744Z,15.57
2019-05-17T19:42:36.764Z,15.47
2019-05-17T19:45:08.544Z,15.47
2019-05-17T19:47:40.140Z,15.45
2019-05-17T19:50:19.043Z,15.43
2019-05-17T19:52:52.007Z,15.48
2019-05-17T19:55:27.051Z,15.42
2019-05-17T19:58:00.367Z,15.40
2019-05-17T20:00:34.196Z,15.35
2019-05-17T20:03:08.461Z,15.28
2019-05-17T20:05:42.109Z,15.36
2019-05-17T20:08:12.918Z,15.19
2019-05-17T20:10:44.906Z,15.11
2019-05-17T20:13:16.593Z,15.10
2019-05-17T20:15:48.591Z,15.04
2019-05-17T20:18:20.235Z,15.07
2019-05-17T20:20:53.528Z,14.97
2019-05-17T20:23:25.303Z,14.84
2019-05-17T20:26:01.647Z,14.81
2019-05-17T20:28:33.342Z,14.83
2019-05-17T20:31:04.211Z,14.81
2019-05-17T20:33:39.807Z,14.80
2019-05-17T20:36:11.017Z,14.67
2019-05-17T20:38:45.125Z,14.44
2019-05-17T20:41:16.298Z,14.21
2019-05-17T20:43:49.259Z,13.99
2019-05-17T20:46:19.987Z,13.78
2019-05-17T20:48:50.945Z,13.55
2019-05-17T20:51:22.843Z,13.42
2019-05-17T20:53:59.523Z,13.25
2019-05-17T20:56:33.371Z,13.11
2019-05-17T20:59:04.634Z,13.07
2019-05-17T21:01:35.356Z,13.11
2019-05-17T21:04:09.507Z,13.15
2019-05-17T21:06:41.307Z,13.12
2019-05-17T21:09:13.056Z,13.21
2019-05-17T21:11:43.676Z,13.18
2019-05-17T21:14:14.472Z,13.18
2019-05-17T21:16:44.970Z,13.21
2019-05-17T21:19:16.553Z,13.16
2019-05-17T21:21:47.153Z,13.05
2019-05-17T21:24:17.769Z,13.05
2019-05-17T21:26:48.525Z,12.99
2019-05-17T21:29:19.189Z,12.97
2019-05-17T21:31:50.846Z,12.96
2019-05-17T21:34:21.427Z,12.99
2019-05-17T21:36:52.006Z,13.06
2019-05-17T21:39:22.646Z,13.11
2019-05-17T21:41:53.296Z,13.17
2019-05-17T21:44:23.837Z,13.22
2019-05-17T21:47:04.446Z,13.12
2019-05-17T21:49:26.597Z,13.24
2019-05-17T21:51:57.097Z,13.30
2019-05-17T21:54:28.104Z,13.42
2019-05-17T21:56:58.493Z,13.30
2019-05-17T21:59:29.189Z,13.17
2019-05-17T22:02:00.148Z,13.02
2019-05-17T22:04:30.608Z,12.84
2019-05-17T22:07:01.170Z,12.81
2019-05-17T22:09:31.717Z,12.92
2019-05-17T22:12:05.766Z,12.99
2019-05-17T22:14:42.150Z,13.06
2019-05-17T22:17:12.817Z,13.00
2019-05-17T22:19:43.316Z,13.04
2019-05-17T22:22:13.869Z,13.11
2019-05-17T22:24:44.356Z,13.16
2019-05-17T22:27:14.916Z,13.12
2019-05-17T22:29:45.597Z,13.00
2019-05-17T22:32:16.167Z,12.99
2019-05-17T22:34:46.727Z,12.95
2019-05-17T22:37:17.724Z,12.88
2019-05-17T22:39:48.442Z,12.87
2019-05-17T22:42:18.942Z,12.95
2019-05-17T22:44:50.013Z,12.89
2019-05-17T22:47:20.674Z,12.96
2019-05-17T22:49:51.164Z,13.02
2019-05-17T22:52:21.766Z,12.99
2019-05-17T22:54:52.181Z,12.94
2019-05-17T22:57:22.772Z,12.98
2019-05-17T22:59:53.470Z,12.89
2019-05-17T23:02:23.885Z,12.89
2019-05-17T23:04:54.420Z,12.83
2019-05-17T23:07:24.908Z,12.87
2019-05-17T23:09:55.483Z,12.85
2019-05-17T23:12:25.996Z,12.79
2019-05-17T23:14:56.329Z,12.78
2019-05-17T23:17:26.756Z,12.70
2019-05-17T23:19:57.246Z,12.59
2019-05-17T23:22:27.750Z,12.62
2019-05-17T23:24:58.206Z,12.57
2019-05-17T23:27:28.590Z,12.61
2019-05-17T23:29:59.119Z,12.62
2019-05-17T23:32:29.740Z,12.61
2019-05-17T23:35:00.346Z,12.58
2019-05-17T23:37:30.903Z,12.52
2019-05-17T23:40:01.411Z,12.40
2019-05-17T23:42:31.909Z,12.37
2019-05-17T23:45:02.505Z,12.37
2019-05-17T23:47:33.186Z,12.28
2019-05-17T23:50:03.868Z,12.27
2019-05-17T23:52:34.407Z,12.33
2019-05-17T23:55:05.592Z,12.31
2019-05-17T23:57:36.237Z,12.38
